ウアリ・ブーメディアン空港の過去48時間の天気

ウアリ・ブーメディアン空港 (Dar-El-Beida)

現在時刻: 12/9 22:36 CET (12/9 21:36 UTC) 以下の時間は現地時間です。

過去48時間のMETAR気象情報
時間 風向 風速(m/s) 視程 気温(℃) 湿度(%) 気圧(hPa) 天気現象
9 22:00 南西 2 10km以上 11 87 1028
9 21:30 不定 1 10km以上 11 94 1029
9 21:00 西南西 2 10km以上 11 94 1028
9 20:30 南西 2 10km以上 12 88 1028
9 20:00 西南西 2 10km以上 12 94 1028
9 19:30 西南西 3 10km以上 13 88 1028
9 19:00 西南西 2 10km以上 13 88 1028
9 18:30 西南西 2 10km以上 14 77 1028
9 18:00 西 2 10km以上 15 72 1027
9 17:30 西 2 10km以上 15 72 1027
9 17:00 西北西 3 10km以上 18 64 1027
9 16:30 静穏 0 10km以上 19 60 1027
9 16:00 2 10km以上 19 64 1027
9 15:30 北北東 3 10km以上 19 60 1027
9 15:00 西 2 10km以上 20 46 1027
9 14:30 西南西 3 10km以上 20 46 1027
9 14:00 西 3 10km以上 20 46 1027
9 13:30 西 3 10km以上 20 49 1027
9 13:00 西 3 10km以上 19 56 1028
9 12:30 西北西 2 10km以上 18 60 1028
9 12:00 西南西 3 10km以上 18 60 1029
9 11:30 西 2 10km以上 16 68 1029
9 11:00 西南西 2 10km以上 16 68 1029
9 10:30 西南西 2 7000m 14 77 1030
9 10:00 不定 1 7000m 11 94 1030
9 09:30 静穏 0 7000m 10 94 1030
9 09:00 静穏 0 8000m 8 100 1030
9 08:30 2 8000m 6 100 1029
9 08:00 1 8000m 5 100 1029
9 07:30 2 8000m 5 100 1029
9 07:00 1 8000m 5 100 1029
9 06:30 南南西 1 8000m 6 100 1029
9 06:00 1 8000m 5 100 1029
9 05:30 南南西 1 8000m 6 100 1029
9 05:00 静穏 0 8000m 6 100 1028
9 04:30 静穏 0 7000m 6 100 1029
9 04:00 南南西 1 6000m 6 100 1029
9 03:30 静穏 0 6000m 7 93 1029
9 03:00 1 6000m 7 100 1029
9 02:30 不定 1 6000m 7 100 1029
9 02:00 北西 1 6000m 7 93 1029
9 01:30 不定 1 4000m 8 100 1029 もや
9 01:00 西北西 2 4000m 8 100 1029 もや
9 00:30 西北西 1 4000m 9 93 1029 もや
9 00:00 西 1 6000m 10 94 1029
8 23:30 西北西 2 7000m 10 94 1030
8 23:00 西北西 2 7000m 10 94 1030
8 22:30 西南西 2 7000m 10 94 1029
8 22:00 南西 2 7000m 11 94 1029
8 21:30 南南西 2 7000m 11 94 1029
8 21:00 南南西 2 8000m 11 94 1029
8 20:30 南西 1 8000m 11 94 1029
8 20:00 西南西 2 8000m 11 94 1029
8 19:30 南西 2 8000m 12 94 1029
8 19:00 南西 1 8000m 13 88 1028
8 18:30 西南西 2 10km以上 14 88 1028
8 18:00 北北西 2 10km以上 15 82 1028
8 17:30 3 10km以上 15 88 1028
8 17:00 3 10km以上 16 82 1027
8 16:30 2 10km以上 17 72 1027
8 16:00 西 2 10km以上 17 72 1027
8 15:30 西北西 2 10km以上 18 68 1027
8 15:00 西 2 10km以上 17 77 1027
8 14:30 3 10km以上 17 72 1027
8 14:00 3 6000m 17 72 1028
8 13:30 西北西 3 10km以上 18 68 1028
8 13:00 西北西 4 10km以上 18 68 1028
8 12:30 西北西 2 8000m 17 72 1028
8 12:00 西 2 8000m 16 72 1028
8 11:30 西 2 6000m 15 77 1028
8 11:00 西南西 2 6000m 14 82 1029
8 10:30 西南西 3 4500m 14 82 1028 もや
8 10:00 西 2 4500m 13 88 1028 もや
8 09:30 西南西 2 3000m 12 88 1028 もや
8 09:00 西南西 2 3000m 11 94 1027 もや
8 08:30 西北西 2 3000m 10 94 1027 もや
8 08:00 西北西 3 3000m 9 100 1027 もや
8 07:30 西 2 6000m 10 94 1027
8 07:00 西 3 6000m 9 100 1026
8 06:30 西北西 2 5000m 10 94 1026
8 06:00 西 2 5000m 10 100 1026
8 05:30 西 1 6000m 11 94 1026
8 05:00 西北西 2 6000m 11 100 1026
8 04:30 西北西 3 6000m 11 94 1026
8 04:00 西北西 3 6000m 11 94 1026
8 03:30 西南西 2 6000m 12 94 1026
8 03:00 西 2 5000m 12 94 1026
8 02:30 西南西 2 5000m 12 94 1026
8 02:00 西 2 5000m 12 94 1026
8 01:30 北西 2 5000m 12 94 1026
8 01:00 南西 3 5000m 11 100 1026
8 00:30 南西 3 5000m 12 94 1026
8 00:00 西 2 5000m 12 100 1027
7 23:30 西北西 1 6000m 13 94 1027
7 23:00 西南西 1 6000m 13 88 1026
DAAG 092100Z 23003KT 210V290 CAVOK 11/09 Q1028
DAAG 092030Z VRB02KT CAVOK 11/10 Q1029
DAAG 092000Z 24004KT 200V270 CAVOK 11/10 Q1028
DAAG 091930Z 23004KT 210V270 CAVOK 12/10 Q1028
DAAG 091900Z 25004KT CAVOK 12/11 Q1028
DAAG 091830Z 24005KT CAVOK 13/11 Q1028
DAAG 091800Z 24004KT CAVOK 13/11 Q1028
DAAG 091730Z 24003KT CAVOK 14/10 Q1028
DAAG 091700Z 27004KT CAVOK 15/10 Q1027
DAAG 091630Z 28004KT CAVOK 15/10 Q1027
DAAG 091600Z 30006KT CAVOK 18/11 Q1027
DAAG 091530Z 00000KT CAVOK 19/11 Q1027
DAAG 091500Z 35004KT CAVOK 19/12 Q1027
DAAG 091430Z 03006KT 340V060 CAVOK 19/11 Q1027
DAAG 091400Z 27004KT 230V300 CAVOK 20/08 Q1027
DAAG 091330Z 25006KT 220V290 CAVOK 20/08 Q1027
DAAG 091300Z 27006KT 240V310 CAVOK 20/08 Q1027
DAAG 091230Z 28005KT 240V320 CAVOK 20/09 Q1027
DAAG 091200Z 28006KT CAVOK 19/10 Q1028
DAAG 091130Z 29004KT 250V330 CAVOK 18/10 Q1028
DAAG 091100Z 25005KT 220V290 CAVOK 18/10 Q1029
DAAG 091030Z 26004KT 210V300 CAVOK 16/10 Q1029
DAAG 091000Z 25004KT 220V280 9999 FEW030 BKN200 16/10 Q1029
DAAG 090930Z 25003KT 210V300 7000 FEW030 BKN200 14/10 Q1030
DAAG 090900Z VRB02KT 7000 FEW030 BKN200 11/10 Q1030
DAAG 090830Z 00000KT 7000 NSC 10/09 Q1030
DAAG 090800Z 00000KT 8000 FEW020 BKN200 08/08 Q1030
DAAG 090730Z 19003KT 8000 FEW020 SCT200 06/06 Q1029
DAAG 090700Z 19002KT 8000 FEW020 SCT200 05/05 Q1029
DAAG 090630Z 19003KT 8000 FEW020 SCT200 05/05 Q1029
DAAG 090600Z 19002KT 8000 FEW020 SCT200 05/05 Q1029
DAAG 090530Z 20002KT 8000 FEW020 06/06 Q1029
DAAG 090500Z 18001KT 8000 FEW020 05/05 Q1029
DAAG 090430Z 21001KT 8000 FEW020 06/06 Q1029
DAAG 090400Z 00000KT 8000 FEW020 06/06 Q1028
DAAG 090330Z 00000KT 7000 FEW020 06/06 Q1029
DAAG 090300Z 20002KT 6000 FEW020 SCT200 06/06 Q1029
DAAG 090230Z 00000KT 6000 FEW013 07/06 Q1029
DAAG 090200Z 19001KT 6000 FEW013 07/07 Q1029
DAAG 090130Z VRB01KT 6000 FEW013 07/07 Q1029
DAAG 090100Z 31002KT 6000 FEW013 07/06 Q1029
DAAG 090030Z VRB01KT 4000 BR FEW013 SCT200 08/08 Q1029
DAAG 090000Z 30003KT 4000 BR FEW013 SCT200 08/08 Q1029
DAAG 082330Z 30002KT 4000 BR FEW013 SCT200 09/08 Q1029
DAAG 082300Z 28001KT 6000 FEW013 SCT200 10/09 Q1029
DAAG 082230Z 30004KT 7000 FEW013 SCT200 10/09 Q1030
DAAG 082200Z 29003KT 260V320 7000 FEW013 SCT200 10/09 Q1030
DAAG 082130Z 24003KT 7000 FEW013 SCT200 10/09 Q1029
DAAG 082100Z 23004KT 7000 SCT013 SCT200 11/10 Q1029
DAAG 082030Z 21004KT 7000 SCT013 SCT200 11/10 Q1029
DAAG 082000Z 20003KT 8000 SCT013 SCT200 11/10 Q1029
DAAG 081930Z 22001KT 8000 SCT013 SCT200 11/10 Q1029
DAAG 081900Z 25003KT 8000 FEW013 SCT046 11/10 Q1029
DAAG 081830Z 23003KT 8000 FEW020 SCT046 12/11 Q1029
DAAG 081800Z 23002KT 8000 FEW020 SCT046 13/11 Q1028
DAAG 081730Z 25003KT 9999 FEW020 SCT046 14/12 Q1028
DAAG 081700Z 33003KT 9999 FEW020 SCT046 15/12 Q1028
DAAG 081630Z 36005KT 320V020 9999 FEW023 SCT046 15/13 Q1028
DAAG 081600Z 01006KT 9999 FEW023 SCT046 16/13 Q1027
DAAG 081530Z 01003KT 300V050 9999 FEW023 SCT046 17/12 Q1027
DAAG 081500Z 28003KT 260V320 9999 FEW023 BKN046 17/12 Q1027
DAAG 081430Z 29004KT 250V320 9999 FEW023 SCT046 18/12 Q1027
DAAG 081400Z 28003KT 250V310 9999 FEW023 BKN086 17/13 Q1027
DAAG 081330Z 35005KT 9999 FEW023 SCT050 BKN080 17/12 Q1027
DAAG 081300Z 35006KT 330V030 6000 SCT023 SCT046 BKN080 17/12 Q1028
DAAG 081230Z 30006KT 240V330 9999 FEW030 BKN046 18/12 Q1028
DAAG 081200Z 29007KT 9999 FEW030 BKN090 18/12 Q1028
DAAG 081130Z 30004KT 270V330 8000 FEW030 SCT036 BKN090 17/12 Q1028
DAAG 081100Z 28004KT 250V310 8000 FEW033 SCT036 BKN090 16/11 Q1028
DAAG 081030Z 26003KT 220V300 6000 SCT033 BKN083 15/11 Q1028
DAAG 081000Z 25004KT 220V280 6000 FEW028 BKN083 14/11 Q1029
DAAG 080930Z 25005KT 220V280 4500 BR FEW028 BKN083 14/11 Q1028
DAAG 080900Z 27004KT 240V310 4500 BR SCT015 BKN083 13/11 Q1028
DAAG 080830Z 25004KT 230V310 3000 BR NSC 12/10 Q1028
DAAG 080800Z 25004KT 3000 BR FEW010 11/10 Q1027
DAAG 080730Z 29004KT 3000 BR SCT010 10/09 Q1027
DAAG 080700Z 29005KT 3000 BR SCT010 09/09 Q1027
DAAG 080630Z 28004KT 6000 FEW010 10/09 Q1027
DAAG 080600Z 28005KT 240V310 6000 FEW013 09/09 Q1026
DAAG 080530Z 29003KT 5000 SCT016 10/09 Q1026
DAAG 080500Z 26003KT 210V300 5000 SCT016 10/10 Q1026
DAAG 080430Z 27002KT 6000 SCT016 11/10 Q1026
DAAG 080400Z 29004KT 6000 BKN016 11/11 Q1026
DAAG 080330Z 29005KT 6000 SCT016 11/10 Q1026
DAAG 080300Z 30006KT 270V330 6000 BKN016 11/10 Q1026
DAAG 080230Z 25003KT 6000 SCT013 12/11 Q1026
DAAG 080200Z 27003KT 240V300 5000 SCT013 12/11 Q1026
DAAG 080130Z 24004KT 210V270 5000 SCT013 12/11 Q1026
DAAG 080100Z 26003KT 5000 SCT013 12/11 Q1026
DAAG 080030Z 31004KT 5000 SCT013 12/11 Q1026
DAAG 080000Z 23005KT 5000 SCT013 11/11 Q1026
DAAG 072330Z 22006KT 5000 SCT013 12/11 Q1026
DAAG 072300Z 28003KT 240V310 5000 SCT013 12/12 Q1027
DAAG 072230Z 30002KT 6000 SCT013 13/12 Q1027
DAAG 072200Z 24002KT 6000 SCT013 13/11 Q1026